aviador You're here:

TFFF Decoded Metar

FORT-DE-FRANCE in ANTILLES
Report Time2018-07-22 02:30:00
UTC Time2018-07-22 03:05:02
Flight Rules vfr VFR
Wind110° at 07 kt
W.Decomp.*RWY 10: 6.3 kt HW 3.0 kt RCW
W.Rank110° ranks 7
Current wind is below 110° avg. (8.1)
Visibility9999 m
Phenomena:Shower Rain
Clouds:Few 024 Hf
Expected CloudBase > 1,600 ft AGL from Temp-Dew spread
CeilingNone
Temp26°C (ISA +11)
Dew Point22°C (79% RH)
QNH1015 hPa
Density Alt1,572 ft
Elevation16 ft
Report Wrong Elevation
Raw Report
METAR TFFF 220230Z AUTO 11007KT 9999 FEW024 26/22 Q1015 TEMPO 4000
SHRA SCT018TCU=

Extra information for TFFF:More info

Metar Taf Metar & Taf Last 4 Metars F.Rules Stats Wind Profile Meteogram Temp Stats Airport Information Weather charts Add Link Nearby VenuesMetar ALERT Operation Metar Decoded Social comments